sensor_id;sensor_type;location;lat;lon;timestamp;pressure;altitude;pressure_sealevel;temperature;humidity
58072;BME280;60383;46.626;18.866;2022-09-09T00:01:58;100173.38;;;21.17;73.12
58072;BME280;60383;46.626;18.866;2022-09-09T00:04:28;100172.75;;;21.15;73.35
58072;BME280;60383;46.626;18.866;2022-09-09T00:07:34;100171.81;;;21.21;73.34
58072;BME280;60383;46.626;18.866;2022-09-09T00:15:50;100189.06;;;20.93;74.13
58072;BME280;60383;46.626;18.866;2022-09-09T00:18:49;100202.91;;;20.99;73.44
58072;BME280;60383;46.626;18.866;2022-09-09T00:21:18;100191.00;;;20.92;73.78
58072;BME280;60383;46.626;18.866;2022-09-09T00:23:50;100172.44;;;20.86;73.85
58072;BME280;60383;46.626;18.866;2022-09-09T00:26:36;100160.69;;;20.84;73.80
58072;BME280;60383;46.626;18.866;2022-09-09T00:30:14;100169.50;;;20.81;73.76
58072;BME280;60383;46.626;18.866;2022-09-09T00:32:16;100181.47;;;20.81;73.73
58072;BME280;60383;46.626;18.866;2022-09-09T00:35:04;100180.69;;;20.74;73.62
58072;BME280;60383;46.626;18.866;2022-09-09T00:37:37;100183.38;;;20.62;73.98
58072;BME280;60383;46.626;18.866;2022-09-09T00:40:16;100192.97;;;20.66;73.86
58072;BME280;60383;46.626;18.866;2022-09-09T00:42:43;100207.22;;;20.77;73.36
58072;BME280;60383;46.626;18.866;2022-09-09T00:48:10;100239.38;;;20.72;73.87
58072;BME280;60383;46.626;18.866;2022-09-09T00:56:22;100206.91;;;20.85;72.92
58072;BME280;60383;46.626;18.866;2022-09-09T00:59:11;100203.53;;;20.83;73.23
58072;BME280;60383;46.626;18.866;2022-09-09T01:01:41;100199.25;;;20.80;73.17
58072;BME280;60383;46.626;18.866;2022-09-09T01:04:13;100194.66;;;20.67;73.46
58072;BME280;60383;46.626;18.866;2022-09-09T01:06:43;100191.72;;;20.62;73.81
58072;BME280;60383;46.626;18.866;2022-09-09T01:12:02;100204.16;;;20.59;73.74
58072;BME280;60383;46.626;18.866;2022-09-09T01:17:03;100198.03;;;20.51;74.08
58072;BME280;60383;46.626;18.866;2022-09-09T01:19:45;100196.16;;;20.45;74.15
58072;BME280;60383;46.626;18.866;2022-09-09T01:22:36;100195.19;;;20.14;75.59
58072;BME280;60383;46.626;18.866;2022-09-09T01:27:37;100199.88;;;20.38;74.86
58072;BME280;60383;46.626;18.866;2022-09-09T01:30:13;100194.31;;;20.38;74.93
58072;BME280;60383;46.626;18.866;2022-09-09T01:32:40;100193.88;;;20.41;74.61
58072;BME280;60383;46.626;18.866;2022-09-09T01:35:15;100197.72;;;20.40;74.63
58072;BME280;60383;46.626;18.866;2022-09-09T01:37:47;100198.91;;;20.26;74.92
58072;BME280;60383;46.626;18.866;2022-09-09T01:40:12;100202.94;;;20.30;75.22
58072;BME280;60383;46.626;18.866;2022-09-09T01:42:38;100207.56;;;20.36;74.98
58072;BME280;60383;46.626;18.866;2022-09-09T01:45:04;100200.50;;;20.40;74.98
58072;BME280;60383;46.626;18.866;2022-09-09T01:47:29;100203.72;;;20.37;74.78
58072;BME280;60383;46.626;18.866;2022-09-09T01:49:55;100203.97;;;20.36;74.70
58072;BME280;60383;46.626;18.866;2022-09-09T01:52:20;100202.75;;;20.25;74.72
58072;BME280;60383;46.626;18.866;2022-09-09T01:54:46;100204.19;;;20.34;74.56
58072;BME280;60383;46.626;18.866;2022-09-09T01:57:27;100211.53;;;20.22;74.78
58072;BME280;60383;46.626;18.866;2022-09-09T02:00:09;100217.75;;;20.24;74.79
58072;BME280;60383;46.626;18.866;2022-09-09T02:02:48;100220.13;;;20.20;75.11
58072;BME280;60383;46.626;18.866;2022-09-09T02:08:08;100224.84;;;20.20;74.54
58072;BME280;60383;46.626;18.866;2022-09-09T02:13:19;100218.25;;;20.14;75.05
58072;BME280;60383;46.626;18.866;2022-09-09T02:16:01;100225.91;;;20.19;75.12
58072;BME280;60383;46.626;18.866;2022-09-09T02:18:43;100211.34;;;20.23;74.56
58072;BME280;60383;46.626;18.866;2022-09-09T02:21:11;100207.94;;;20.21;74.13
58072;BME280;60383;46.626;18.866;2022-09-09T02:23:41;100204.50;;;20.19;74.13
58072;BME280;60383;46.626;18.866;2022-09-09T02:26:11;100211.53;;;20.22;74.30
58072;BME280;60383;46.626;18.866;2022-09-09T02:28:39;100212.66;;;20.21;74.26
58072;BME280;60383;46.626;18.866;2022-09-09T02:31:06;100222.66;;;19.97;74.60
58072;BME280;60383;46.626;18.866;2022-09-09T02:33:38;100219.59;;;20.05;74.50
58072;BME280;60383;46.626;18.866;2022-09-09T02:36:06;100218.75;;;20.04;74.49
58072;BME280;60383;46.626;18.866;2022-09-09T02:38:37;100214.28;;;20.03;74.68
58072;BME280;60383;46.626;18.866;2022-09-09T02:41:05;100215.53;;;20.07;74.87
58072;BME280;60383;46.626;18.866;2022-09-09T02:43:34;100221.25;;;20.13;74.23
58072;BME280;60383;46.626;18.866;2022-09-09T02:46:32;100219.16;;;20.08;74.16
58072;BME280;60383;46.626;18.866;2022-09-09T02:49:22;100207.91;;;19.96;74.67
58072;BME280;60383;46.626;18.866;2022-09-09T02:52:01;100211.25;;;20.05;73.88
58072;BME280;60383;46.626;18.866;2022-09-09T02:57:01;100196.13;;;20.01;73.60
58072;BME280;60383;46.626;18.866;2022-09-09T02:59:30;100207.31;;;19.94;73.75
58072;BME280;60383;46.626;18.866;2022-09-09T03:01:55;100211.41;;;19.85;74.02
58072;BME280;60383;46.626;18.866;2022-09-09T03:04:21;100212.44;;;19.90;74.06
58072;BME280;60383;46.626;18.866;2022-09-09T03:06:46;100206.91;;;19.90;73.71
58072;BME280;60383;46.626;18.866;2022-09-09T03:09:12;100204.06;;;19.97;73.89
58072;BME280;60383;46.626;18.866;2022-09-09T03:11:37;100208.16;;;19.88;73.50
58072;BME280;60383;46.626;18.866;2022-09-09T03:14:04;100203.72;;;19.87;73.75
58072;BME280;60383;46.626;18.866;2022-09-09T03:16:29;100210.94;;;19.88;73.73
58072;BME280;60383;46.626;18.866;2022-09-09T03:18:55;100218.03;;;19.84;73.15
58072;BME280;60383;46.626;18.866;2022-09-09T03:21:20;100217.66;;;19.73;72.91
58072;BME280;60383;46.626;18.866;2022-09-09T03:23:46;100225.72;;;19.43;73.88
58072;BME280;60383;46.626;18.866;2022-09-09T03:26:12;100224.22;;;19.47;73.91
58072;BME280;60383;46.626;18.866;2022-09-09T03:28:40;100237.44;;;19.52;73.70
58072;BME280;60383;46.626;18.866;2022-09-09T03:31:06;100241.63;;;19.61;73.53
58072;BME280;60383;46.626;18.866;2022-09-09T03:33:35;100237.78;;;19.62;73.44
58072;BME280;60383;46.626;18.866;2022-09-09T03:36:02;100239.28;;;19.64;72.87
58072;BME280;60383;46.626;18.866;2022-09-09T03:38:28;100248.00;;;19.68;72.89
58072;BME280;60383;46.626;18.866;2022-09-09T03:40:55;100246.91;;;19.76;73.42
58072;BME280;60383;46.626;18.866;2022-09-09T03:43:25;100243.88;;;19.84;72.92
58072;BME280;60383;46.626;18.866;2022-09-09T03:45:51;100242.81;;;19.85;72.33
58072;BME280;60383;46.626;18.866;2022-09-09T03:48:17;100250.91;;;19.93;71.83
58072;BME280;60383;46.626;18.866;2022-09-09T03:50:46;100263.53;;;19.89;71.42
58072;BME280;60383;46.626;18.866;2022-09-09T03:53:12;100268.63;;;19.99;70.35
58072;BME280;60383;46.626;18.866;2022-09-09T03:55:37;100269.31;;;19.81;71.37
58072;BME280;60383;46.626;18.866;2022-09-09T03:58:02;100266.78;;;19.79;71.45
58072;BME280;60383;46.626;18.866;2022-09-09T04:00:28;100266.38;;;19.69;71.85
58072;BME280;60383;46.626;18.866;2022-09-09T04:02:55;100267.53;;;19.55;72.31
58072;BME280;60383;46.626;18.866;2022-09-09T04:05:22;100268.81;;;19.52;72.62
58072;BME280;60383;46.626;18.866;2022-09-09T04:07:48;100264.31;;;19.58;71.93
58072;BME280;60383;46.626;18.866;2022-09-09T04:10:13;100265.38;;;19.57;72.27
58072;BME280;60383;46.626;18.866;2022-09-09T04:12:40;100261.53;;;19.58;72.65
58072;BME280;60383;46.626;18.866;2022-09-09T04:15:06;100256.81;;;19.58;72.82
58072;BME280;60383;46.626;18.866;2022-09-09T04:17:32;100259.75;;;19.70;72.73
58072;BME280;60383;46.626;18.866;2022-09-09T04:19:58;100253.78;;;19.73;72.04
58072;BME280;60383;46.626;18.866;2022-09-09T04:22:23;100251.84;;;19.74;71.99
58072;BME280;60383;46.626;18.866;2022-09-09T04:24:49;100248.66;;;19.70;72.34
58072;BME280;60383;46.626;18.866;2022-09-09T04:27:15;100246.28;;;19.74;72.46
58072;BME280;60383;46.626;18.866;2022-09-09T04:29:41;100253.50;;;19.88;71.70
58072;BME280;60383;46.626;18.866;2022-09-09T04:32:06;100260.13;;;19.87;71.73
58072;BME280;60383;46.626;18.866;2022-09-09T04:34:31;100252.88;;;19.86;71.97
58072;BME280;60383;46.626;18.866;2022-09-09T04:36:57;100262.28;;;19.85;71.97
58072;BME280;60383;46.626;18.866;2022-09-09T04:39:23;100258.22;;;19.74;72.20
58072;BME280;60383;46.626;18.866;2022-09-09T04:41:49;100254.47;;;19.62;72.58
58072;BME280;60383;46.626;18.866;2022-09-09T04:44:15;100253.81;;;19.60;72.68
58072;BME280;60383;46.626;18.866;2022-09-09T04:46:40;100241.44;;;19.62;72.60
58072;BME280;60383;46.626;18.866;2022-09-09T04:49:06;100239.75;;;19.55;72.93
58072;BME280;60383;46.626;18.866;2022-09-09T04:51:32;100252.56;;;19.62;72.65
58072;BME280;60383;46.626;18.866;2022-09-09T04:53:58;100249.53;;;19.64;72.49
58072;BME280;60383;46.626;18.866;2022-09-09T04:56:24;100246.19;;;19.55;73.03
58072;BME280;60383;46.626;18.866;2022-09-09T04:58:52;100254.91;;;19.59;72.59
58072;BME280;60383;46.626;18.866;2022-09-09T05:01:19;100253.81;;;19.60;72.36
58072;BME280;60383;46.626;18.866;2022-09-09T05:03:45;100256.41;;;19.61;72.64
58072;BME280;60383;46.626;18.866;2022-09-09T05:06:16;100254.47;;;19.62;72.86
58072;BME280;60383;46.626;18.866;2022-09-09T05:08:42;100263.03;;;19.60;72.72
58072;BME280;60383;46.626;18.866;2022-09-09T05:13:43;100255.91;;;19.71;72.06
58072;BME280;60383;46.626;18.866;2022-09-09T05:16:09;100261.25;;;19.73;72.03
58072;BME280;60383;46.626;18.866;2022-09-09T05:18:37;100269.63;;;19.66;72.00
58072;BME280;60383;46.626;18.866;2022-09-09T05:21:03;100274.50;;;19.71;72.23
58072;BME280;60383;46.626;18.866;2022-09-09T05:23:28;100278.72;;;19.80;71.95
58072;BME280;60383;46.626;18.866;2022-09-09T05:25:57;100278.28;;;19.90;71.58
58072;BME280;60383;46.626;18.866;2022-09-09T05:28:24;100272.22;;;20.00;71.22
58072;BME280;60383;46.626;18.866;2022-09-09T05:31:07;100274.63;;;20.28;70.60
58072;BME280;60383;46.626;18.866;2022-09-09T05:33:40;100275.50;;;20.47;69.04
58072;BME280;60383;46.626;18.866;2022-09-09T05:36:13;100278.56;;;20.64;68.64
58072;BME280;60383;46.626;18.866;2022-09-09T05:38:39;100285.22;;;20.88;67.98
58072;BME280;60383;46.626;18.866;2022-09-09T05:41:04;100288.91;;;21.08;66.46
58072;BME280;60383;46.626;18.866;2022-09-09T05:43:30;100288.91;;;21.08;66.59
58072;BME280;60383;46.626;18.866;2022-09-09T05:46:12;100285.34;;;21.00;66.42
58072;BME280;60383;46.626;18.866;2022-09-09T05:48:42;100298.31;;;21.06;66.22
58072;BME280;60383;46.626;18.866;2022-09-09T05:51:13;100292.22;;;21.16;65.67
58072;BME280;60383;46.626;18.866;2022-09-09T05:53:41;100289.13;;;21.25;65.55
58072;BME280;60383;46.626;18.866;2022-09-09T05:56:11;100287.91;;;21.39;65.05
58072;BME280;60383;46.626;18.866;2022-09-09T05:58:38;100290.25;;;21.61;63.96
58072;BME280;60383;46.626;18.866;2022-09-09T06:01:17;100285.19;;;21.69;62.80
58072;BME280;60383;46.626;18.866;2022-09-09T06:03:44;100286.13;;;21.63;63.16
58072;BME280;60383;46.626;18.866;2022-09-09T06:06:14;100292.63;;;21.76;63.49
58072;BME280;60383;46.626;18.866;2022-09-09T06:08:42;100302.88;;;21.94;63.00
58072;BME280;60383;46.626;18.866;2022-09-09T06:11:22;100296.13;;;22.01;62.40
58072;BME280;60383;46.626;18.866;2022-09-09T06:13:48;100305.91;;;21.92;61.63
58072;BME280;60383;46.626;18.866;2022-09-09T06:16:17;100310.59;;;22.10;62.05
58072;BME280;60383;46.626;18.866;2022-09-09T06:18:44;100316.50;;;22.02;61.67
58072;BME280;60383;46.626;18.866;2022-09-09T06:21:17;100314.28;;;22.23;61.66
58072;BME280;60383;46.626;18.866;2022-09-09T06:23:43;100317.00;;;22.41;60.90
58072;BME280;60383;46.626;18.866;2022-09-09T06:26:20;100313.75;;;22.56;60.49
58072;BME280;60383;46.626;18.866;2022-09-09T06:28:48;100310.63;;;22.64;59.79
58072;BME280;60383;46.626;18.866;2022-09-09T06:31:17;100308.22;;;22.80;59.18
58072;BME280;60383;46.626;18.866;2022-09-09T06:33:43;100310.03;;;22.86;58.62
58072;BME280;60383;46.626;18.866;2022-09-09T06:36:20;100317.19;;;23.06;57.04
58072;BME280;60383;46.626;18.866;2022-09-09T06:38:46;100314.03;;;23.14;57.10
58072;BME280;60383;46.626;18.866;2022-09-09T06:41:14;100310.16;;;23.15;56.82
58072;BME280;60383;46.626;18.866;2022-09-09T06:43:39;100307.97;;;22.93;57.36
58072;BME280;60383;46.626;18.866;2022-09-09T06:46:08;100301.53;;;22.93;57.96
58072;BME280;60383;46.626;18.866;2022-09-09T06:48:35;100306.88;;;22.83;57.71
58072;BME280;60383;46.626;18.866;2022-09-09T06:53:27;100312.69;;;22.69;57.51
58072;BME280;60383;46.626;18.866;2022-09-09T06:55:53;100305.16;;;22.70;57.76
58072;BME280;60383;46.626;18.866;2022-09-09T06:58:20;100312.25;;;22.42;58.59
58072;BME280;60383;46.626;18.866;2022-09-09T07:00:47;100310.84;;;22.21;59.11
58072;BME280;60383;46.626;18.866;2022-09-09T07:03:13;100307.03;;;22.33;59.71
58072;BME280;60383;46.626;18.866;2022-09-09T07:05:39;100304.59;;;22.37;59.40
58072;BME280;60383;46.626;18.866;2022-09-09T07:08:04;100305.56;;;22.31;59.39
58072;BME280;60383;46.626;18.866;2022-09-09T07:10:30;100300.94;;;22.37;59.92
58072;BME280;60383;46.626;18.866;2022-09-09T07:12:56;100298.56;;;22.40;58.68
58072;BME280;60383;46.626;18.866;2022-09-09T07:15:21;100296.47;;;22.36;58.78
58072;BME280;60383;46.626;18.866;2022-09-09T07:17:48;100292.75;;;22.42;59.21
58072;BME280;60383;46.626;18.866;2022-09-09T07:20:14;100284.38;;;22.42;59.06
58072;BME280;60383;46.626;18.866;2022-09-09T07:22:40;100284.28;;;22.48;59.29
58072;BME280;60383;46.626;18.866;2022-09-09T07:25:06;100289.22;;;22.46;59.01
58072;BME280;60383;46.626;18.866;2022-09-09T07:27:32;100290.25;;;22.64;58.66
58072;BME280;60383;46.626;18.866;2022-09-09T07:29:57;100292.16;;;22.52;58.40
58072;BME280;60383;46.626;18.866;2022-09-09T07:32:23;100288.44;;;22.93;57.83
58072;BME280;60383;46.626;18.866;2022-09-09T07:34:48;100283.56;;;23.12;57.67
58072;BME280;60383;46.626;18.866;2022-09-09T07:37:15;100283.72;;;23.58;56.39
58072;BME280;60383;46.626;18.866;2022-09-09T07:39:42;100284.31;;;23.72;56.30
58072;BME280;60383;46.626;18.866;2022-09-09T07:42:07;100277.91;;;23.89;55.32
58072;BME280;60383;46.626;18.866;2022-09-09T07:44:37;100282.56;;;23.83;54.76
58072;BME280;60383;46.626;18.866;2022-09-09T07:47:05;100286.16;;;23.67;55.76
58072;BME280;60383;46.626;18.866;2022-09-09T07:49:31;100289.44;;;23.64;55.42
58072;BME280;60383;46.626;18.866;2022-09-09T07:51:58;100290.69;;;23.85;55.23
58072;BME280;60383;46.626;18.866;2022-09-09T07:54:23;100293.84;;;23.88;54.81
58072;BME280;60383;46.626;18.866;2022-09-09T07:56:50;100293.50;;;23.97;55.27
58072;BME280;60383;46.626;18.866;2022-09-09T07:59:16;100291.00;;;24.12;54.88
58072;BME280;60383;46.626;18.866;2022-09-09T08:01:45;100292.38;;;24.27;54.50
58072;BME280;60383;46.626;18.866;2022-09-09T08:04:16;100291.28;;;24.45;54.42
58072;BME280;60383;46.626;18.866;2022-09-09T08:06:54;100293.06;;;24.51;53.63
58072;BME280;60383;46.626;18.866;2022-09-09T08:09:20;100290.47;;;24.15;54.48
58072;BME280;60383;46.626;18.866;2022-09-09T08:11:47;100285.84;;;24.38;53.58
58072;BME280;60383;46.626;18.866;2022-09-09T08:14:12;100288.31;;;24.34;54.03
58072;BME280;60383;46.626;18.866;2022-09-09T08:16:41;100298.25;;;24.13;54.90
58072;BME280;60383;46.626;18.866;2022-09-09T08:19:07;100296.16;;;24.20;54.43
58072;BME280;60383;46.626;18.866;2022-09-09T08:21:35;100305.81;;;24.13;54.39
58072;BME280;60383;46.626;18.866;2022-09-09T08:24:02;100301.84;;;24.08;54.33
58072;BME280;60383;46.626;18.866;2022-09-09T08:26:50;100295.94;;;24.22;54.26
58072;BME280;60383;46.626;18.866;2022-09-09T08:29:15;100299.94;;;24.60;53.42
58072;BME280;60383;46.626;18.866;2022-09-09T08:31:46;100302.69;;;24.72;53.73
58072;BME280;60383;46.626;18.866;2022-09-09T08:34:13;100298.88;;;24.78;52.58
58072;BME280;60383;46.626;18.866;2022-09-09T08:36:41;100319.63;;;24.82;52.48
58072;BME280;60383;46.626;18.866;2022-09-09T08:39:09;100309.19;;;24.61;50.56
58072;BME280;60383;46.626;18.866;2022-09-09T08:41:59;100308.97;;;24.79;49.99
58072;BME280;60383;46.626;18.866;2022-09-09T08:44:46;100305.06;;;24.97;49.96
58072;BME280;60383;46.626;18.866;2022-09-09T08:58:04;100312.03;;;26.23;47.89
58072;BME280;60383;46.626;18.866;2022-09-09T09:06:22;100276.13;;;26.57;46.84
58072;BME280;60383;46.626;18.866;2022-09-09T09:11:38;100265.22;;;26.28;46.29
58072;BME280;60383;46.626;18.866;2022-09-09T09:14:10;100261.06;;;26.69;45.03
58072;BME280;60383;46.626;18.866;2022-09-09T09:16:44;100264.97;;;26.68;45.27
58072;BME280;60383;46.626;18.866;2022-09-09T09:19:15;100260.00;;;26.42;45.23
58072;BME280;60383;46.626;18.866;2022-09-09T09:21:44;100255.19;;;26.38;44.69
58072;BME280;60383;46.626;18.866;2022-09-09T09:27:16;100247.34;;;27.20;42.79
58072;BME280;60383;46.626;18.866;2022-09-09T09:29:44;100238.78;;;27.42;42.00
58072;BME280;60383;46.626;18.866;2022-09-09T09:32:14;100251.63;;;27.28;43.16
58072;BME280;60383;46.626;18.866;2022-09-09T09:34:41;100255.50;;;27.22;42.12
58072;BME280;60383;46.626;18.866;2022-09-09T09:37:25;100256.88;;;27.14;42.36
58072;BME280;60383;46.626;18.866;2022-09-09T09:39:53;100257.09;;;27.02;43.61
58072;BME280;60383;46.626;18.866;2022-09-09T09:42:18;100264.44;;;26.71;43.28
58072;BME280;60383;46.626;18.866;2022-09-09T09:44:44;100253.34;;;26.86;42.18
58072;BME280;60383;46.626;18.866;2022-09-09T09:47:22;100251.19;;;27.57;42.03
58072;BME280;60383;46.626;18.866;2022-09-09T09:49:53;100255.34;;;28.33;40.12
58072;BME280;60383;46.626;18.866;2022-09-09T09:52:24;100249.72;;;28.64;39.01
58072;BME280;60383;46.626;18.866;2022-09-09T09:54:51;100256.19;;;28.60;39.44
58072;BME280;60383;46.626;18.866;2022-09-09T09:57:18;100245.22;;;28.84;39.05
58072;BME280;60383;46.626;18.866;2022-09-09T09:59:48;100232.78;;;28.95;38.49
58072;BME280;60383;46.626;18.866;2022-09-09T10:02:20;100235.00;;;29.14;38.10
58072;BME280;60383;46.626;18.866;2022-09-09T10:04:46;100235.31;;;28.92;39.62
58072;BME280;60383;46.626;18.866;2022-09-09T10:07:20;100226.88;;;28.92;39.75
58072;BME280;60383;46.626;18.866;2022-09-09T10:09:52;100232.81;;;28.85;39.13
58072;BME280;60383;46.626;18.866;2022-09-09T10:15:16;100223.09;;;29.38;39.24
58072;BME280;60383;46.626;18.866;2022-09-09T10:18:41;100229.16;;;29.66;35.85
58072;BME280;60383;46.626;18.866;2022-09-09T10:38:17;100222.34;;;30.56;29.84
58072;BME280;60383;46.626;18.866;2022-09-09T10:40:58;100209.34;;;30.85;29.76
58072;BME280;60383;46.626;18.866;2022-09-09T10:56:36;100193.16;;;31.20;29.28
58072;BME280;60383;46.626;18.866;2022-09-09T10:59:17;100185.25;;;31.17;28.62
58072;BME280;60383;46.626;18.866;2022-09-09T11:04:48;100203.66;;;31.38;28.09
58072;BME280;60383;46.626;18.866;2022-09-09T11:07:25;100198.69;;;31.01;27.96
58072;BME280;60383;46.626;18.866;2022-09-09T11:09:55;100194.91;;;31.16;28.19
58072;BME280;60383;46.626;18.866;2022-09-09T11:12:24;100193.94;;;30.96;29.04
58072;BME280;60383;46.626;18.866;2022-09-09T11:15:04;100197.50;;;31.31;27.31
58072;BME280;60383;46.626;18.866;2022-09-09T11:17:46;100193.72;;;31.41;27.65
58072;BME280;60383;46.626;18.866;2022-09-09T11:20:14;100195.84;;;31.30;27.58
58072;BME280;60383;46.626;18.866;2022-09-09T11:22:48;100182.91;;;31.24;28.52
58072;BME280;60383;46.626;18.866;2022-09-09T11:25:37;100189.50;;;31.19;28.81
58072;BME280;60383;46.626;18.866;2022-09-09T11:28:38;100192.56;;;31.42;29.13
58072;BME280;60383;46.626;18.866;2022-09-09T11:40:25;100177.47;;;31.28;28.19
58072;BME280;60383;46.626;18.866;2022-09-09T11:43:07;100185.72;;;31.24;28.28
58072;BME280;60383;46.626;18.866;2022-09-09T11:45:49;100182.66;;;31.20;28.87
58072;BME280;60383;46.626;18.866;2022-09-09T11:48:42;100174.69;;;30.74;28.77
58072;BME280;60383;46.626;18.866;2022-09-09T12:01:35;100178.56;;;31.32;26.68
58072;BME280;60383;46.626;18.866;2022-09-09T12:06:53;100183.75;;;31.25;25.39
58072;BME280;60383;46.626;18.866;2022-09-09T12:09:30;100173.97;;;30.63;26.18
58072;BME280;60383;46.626;18.866;2022-09-09T12:17:23;100161.31;;;30.26;27.11
58072;BME280;60383;46.626;18.866;2022-09-09T12:26:00;100137.44;;;30.72;26.72
58072;BME280;60383;46.626;18.866;2022-09-09T12:31:25;100130.75;;;30.87;27.51
58072;BME280;60383;46.626;18.866;2022-09-09T12:33:51;100126.88;;;31.02;26.90
58072;BME280;60383;46.626;18.866;2022-09-09T12:36:27;100115.91;;;30.76;27.54
58072;BME280;60383;46.626;18.866;2022-09-09T12:38:55;100113.25;;;30.85;26.92
58072;BME280;60383;46.626;18.866;2022-09-09T12:41:26;100101.38;;;30.34;27.61
58072;BME280;60383;46.626;18.866;2022-09-09T12:44:04;100094.78;;;30.93;26.20
58072;BME280;60383;46.626;18.866;2022-09-09T12:46:46;100091.28;;;31.01;26.79
58072;BME280;60383;46.626;18.866;2022-09-09T12:49:28;100100.50;;;31.12;27.14
58072;BME280;60383;46.626;18.866;2022-09-09T12:51:56;100095.06;;;30.91;27.10
58072;BME280;60383;46.626;18.866;2022-09-09T12:54:22;100097.44;;;30.59;28.21
58072;BME280;60383;46.626;18.866;2022-09-09T12:56:49;100102.13;;;30.40;27.91
58072;BME280;60383;46.626;18.866;2022-09-09T12:59:27;100092.22;;;30.72;27.20
58072;BME280;60383;46.626;18.866;2022-09-09T13:01:59;100084.56;;;30.72;27.08
58072;BME280;60383;46.626;18.866;2022-09-09T13:04:25;100090.81;;;30.69;27.80
58072;BME280;60383;46.626;18.866;2022-09-09T13:06:51;100086.69;;;30.32;27.40
58072;BME280;60383;46.626;18.866;2022-09-09T13:09:18;100092.84;;;30.39;28.17
58072;BME280;60383;46.626;18.866;2022-09-09T13:11:50;100090.31;;;30.08;29.51
58072;BME280;60383;46.626;18.866;2022-09-09T13:14:19;100086.53;;;30.18;28.65
58072;BME280;60383;46.626;18.866;2022-09-09T13:16:59;100086.72;;;30.03;28.06
58072;BME280;60383;46.626;18.866;2022-09-09T13:19:29;100087.88;;;29.96;28.93
58072;BME280;60383;46.626;18.866;2022-09-09T13:21:57;100089.69;;;29.82;29.16
58072;BME280;60383;46.626;18.866;2022-09-09T13:27:02;100077.91;;;29.70;28.50
58072;BME280;60383;46.626;18.866;2022-09-09T13:29:28;100075.06;;;29.70;28.90
58072;BME280;60383;46.626;18.866;2022-09-09T13:32:06;100072.94;;;29.06;29.62
58072;BME280;60383;46.626;18.866;2022-09-09T13:34:37;100064.75;;;29.55;29.83
58072;BME280;60383;46.626;18.866;2022-09-09T13:37:14;100049.53;;;29.90;27.86
58072;BME280;60383;46.626;18.866;2022-09-09T13:39:51;100051.88;;;29.78;28.28
58072;BME280;60383;46.626;18.866;2022-09-09T13:42:27;100051.41;;;30.00;27.81
58072;BME280;60383;46.626;18.866;2022-09-09T13:44:55;100054.00;;;29.96;27.27
58072;BME280;60383;46.626;18.866;2022-09-09T13:47:35;100042.66;;;29.67;28.51
58072;BME280;60383;46.626;18.866;2022-09-09T13:50:24;100046.16;;;29.54;29.85
58072;BME280;60383;46.626;18.866;2022-09-09T13:52:52;100033.03;;;29.39;28.08
58072;BME280;60383;46.626;18.866;2022-09-09T13:55:20;100037.16;;;29.52;28.00
58072;BME280;60383;46.626;18.866;2022-09-09T14:00:23;100037.22;;;28.91;30.09
58072;BME280;60383;46.626;18.866;2022-09-09T14:02:49;100029.03;;;29.45;29.48
58072;BME280;60383;46.626;18.866;2022-09-09T14:05:15;100030.34;;;29.53;29.50
58072;BME280;60383;46.626;18.866;2022-09-09T14:07:42;100028.59;;;29.62;29.56
58072;BME280;60383;46.626;18.866;2022-09-09T14:10:08;100033.47;;;29.51;29.13
58072;BME280;60383;46.626;18.866;2022-09-09T14:12:34;100028.97;;;29.55;28.55
58072;BME280;60383;46.626;18.866;2022-09-09T14:15:00;100025.72;;;29.32;29.33
58072;BME280;60383;46.626;18.866;2022-09-09T14:17:26;100024.75;;;29.03;29.48
58072;BME280;60383;46.626;18.866;2022-09-09T14:19:54;100024.75;;;29.03;29.63
58072;BME280;60383;46.626;18.866;2022-09-09T14:22:21;100017.22;;;28.93;30.00
58072;BME280;60383;46.626;18.866;2022-09-09T14:24:47;100018.91;;;28.94;29.59
58072;BME280;60383;46.626;18.866;2022-09-09T14:27:12;100014.63;;;29.01;29.73
58072;BME280;60383;46.626;18.866;2022-09-09T14:29:37;100016.78;;;29.15;29.27
58072;BME280;60383;46.626;18.866;2022-09-09T14:32:03;100007.25;;;29.11;29.62
58072;BME280;60383;46.626;18.866;2022-09-09T14:34:29;100004.06;;;29.17;29.24
58072;BME280;60383;46.626;18.866;2022-09-09T14:36:54;100007.88;;;28.97;29.50
58072;BME280;60383;46.626;18.866;2022-09-09T14:39:19;100015.84;;;28.80;30.00
58072;BME280;60383;46.626;18.866;2022-09-09T14:41:45;100012.28;;;28.69;30.48
58072;BME280;60383;46.626;18.866;2022-09-09T14:44:11;100014.25;;;28.53;31.15
58072;BME280;60383;46.626;18.866;2022-09-09T14:46:36;100012.03;;;28.50;30.41
58072;BME280;60383;46.626;18.866;2022-09-09T14:49:02;100010.38;;;28.44;30.13
58072;BME280;60383;46.626;18.866;2022-09-09T14:51:27;100003.56;;;28.55;30.31
58072;BME280;60383;46.626;18.866;2022-09-09T14:53:55;100012.00;;;28.55;29.87
58072;BME280;60383;46.626;18.866;2022-09-09T14:56:25;100008.63;;;28.53;30.19
58072;BME280;60383;46.626;18.866;2022-09-09T14:58:55;100018.34;;;28.16;32.30
58072;BME280;60383;46.626;18.866;2022-09-09T15:01:21;100010.16;;;28.19;32.11
58072;BME280;60383;46.626;18.866;2022-09-09T15:04:05;100014.66;;;28.15;30.77
58072;BME280;60383;46.626;18.866;2022-09-09T15:06:34;100007.06;;;28.16;30.40
58072;BME280;60383;46.626;18.866;2022-09-09T15:09:00;100005.66;;;28.03;30.63
58072;BME280;60383;46.626;18.866;2022-09-09T15:11:27;100007.06;;;28.16;30.82
58072;BME280;60383;46.626;18.866;2022-09-09T15:13:54;100010.16;;;28.19;31.44